Time;durP1;ratioP1;P1;durP2;ratioP2;P2;SDS_P1;SDS_P2;PMS_P1;PMS_P2;Temp;Humidity;BMP_temperature;BMP_pressure;BME280_temperature;BME280_humidity;BME280_pressure;Samples;Min_cycle;Max_cycle;Signal;HPM_P1;HPM_P2
2022/10/18 00:01:28;;;;;;;13.70;5.50;;;10.40;99.90;;;;;;4967948;28;20038;-69
2022/10/18 00:03:54;;;;;;;12.02;5.40;;;10.40;99.90;;;;;;4958377;28;20034;-70
2022/10/18 00:06:19;;;;;;;9.10;4.63;;;10.40;99.90;;;;;;4968053;28;20046;-70
2022/10/18 00:08:45;;;;;;;8.38;4.70;;;10.30;99.90;;;;;;4968041;28;20035;-70
2022/10/18 00:11:10;;;;;;;9.15;5.15;;;10.30;99.90;;;;;;4968015;28;20035;-70
2022/10/18 00:13:36;;;;;;;11.80;5.13;;;10.30;99.90;;;;;;4968606;28;20109;-70
2022/10/18 00:16:04;;;;;;;9.45;4.95;;;10.20;99.90;;;;;;4968639;28;20678;-70
2022/10/18 00:18:30;;;;;;;11.35;5.32;;;10.20;99.90;;;;;;4966955;28;20505;-70
2022/10/18 00:21:07;;;;;;;12.35;5.65;;;10.30;99.90;;;;;;4959751;28;20054;-70
2022/10/18 00:23:34;;;;;;;9.80;4.90;;;10.30;99.90;;;;;;4967438;28;20110;-70
2022/10/18 00:26:04;;;;;;;8.82;4.60;;;10.30;99.90;;;;;;4968401;28;20053;-70
2022/10/18 00:28:30;;;;;;;8.60;4.78;;;10.30;99.90;;;;;;4969709;28;20062;-70
2022/10/18 00:30:56;;;;;;;11.77;4.53;;;10.30;99.90;;;;;;4972243;28;20035;-69
2022/10/18 00:33:22;;;;;;;8.88;4.50;;;10.30;99.90;;;;;;4971911;28;20042;-70
2022/10/18 00:35:47;;;;;;;8.38;4.70;;;10.20;99.90;;;;;;4979638;28;20046;-70
2022/10/18 00:38:13;;;;;;;7.35;3.80;;;10.20;99.90;;;;;;4974839;28;20039;-70
2022/10/18 00:40:39;;;;;;;8.50;4.00;;;10.10;99.90;;;;;;4969576;28;20117;-70
2022/10/18 00:43:04;;;;;;;6.32;3.83;;;10.20;99.90;;;;;;4979402;28;20035;-70
2022/10/18 00:45:30;;;;;;;9.48;4.10;;;10.20;99.90;;;;;;4973543;28;20489;-70
2022/10/18 00:48:00;;;;;;;5.57;4.10;;;10.10;99.90;;;;;;4967548;28;20054;-69
2022/10/18 00:50:30;;;;;;;7.40;4.63;;;10.10;99.90;;;;;;4965375;28;20217;-70
2022/10/18 00:52:58;;;;;;;8.82;4.25;;;10.00;99.90;;;;;;4970214;28;20062;-70
2022/10/18 00:55:25;;;;;;;6.72;3.70;;;10.00;99.90;;;;;;4966892;28;20069;-69
2022/10/18 00:57:51;;;;;;;14.80;4.15;;;10.10;99.90;;;;;;4964498;28;20116;-69
2022/10/18 01:00:17;;;;;;;8.63;4.18;;;10.10;99.90;;;;;;4974437;28;20081;-69
2022/10/18 01:02:44;;;;;;;9.40;4.47;;;10.10;99.90;;;;;;4974731;28;20058;-69
2022/10/18 01:05:15;;;;;;;8.18;4.72;;;10.10;99.90;;;;;;4963812;28;20118;-69
2022/10/18 01:08:25;;;;;;;7.03;3.67;;;10.10;99.90;;;;;;4955537;28;20035;-69
2022/10/18 01:11:08;;;;;;;7.10;3.10;;;10.10;99.90;;;;;;4953375;28;20038;-69
2022/10/18 01:14:02;;;;;;;5.80;3.30;;;10.10;99.90;;;;;;4970213;28;20416;-69
2022/10/18 01:16:53;;;;;;;4.80;3.10;;;10.10;99.90;;;;;;4969211;28;20022;-69
2022/10/18 01:19:47;;;;;;;6.90;3.47;;;10.20;99.90;;;;;;4969519;28;20073;-69
2022/10/18 01:22:19;;;;;;;6.43;3.03;;;10.10;99.90;;;;;;4961948;28;20035;-69
2022/10/18 01:24:48;;;;;;;6.90;3.72;;;10.10;99.90;;;;;;4971234;28;20068;-69
2022/10/18 01:27:39;;;;;;;8.68;4.20;;;10.00;99.90;;;;;;4971614;28;20038;-69
2022/10/18 01:30:22;;;;;;;11.40;4.88;;;10.00;99.90;;;;;;4968346;28;20042;-69
2022/10/18 01:32:53;;;;;;;7.80;4.50;;;9.90;99.90;;;;;;4971699;28;20054;-69
2022/10/18 01:35:26;;;;;;;8.05;4.35;;;10.00;99.90;;;;;;4986020;28;20128;-69
2022/10/18 01:37:56;;;;;;;9.60;4.55;;;10.00;99.90;;;;;;4962474;28;20039;-69
2022/10/18 01:40:24;;;;;;;9.38;4.70;;;10.10;99.90;;;;;;4971174;28;20035;-69
2022/10/18 01:42:50;;;;;;;7.93;4.38;;;10.10;99.90;;;;;;4970854;28;20034;-69
2022/10/18 01:45:17;;;;;;;6.47;3.80;;;10.00;99.90;;;;;;4964298;28;20039;-69
2022/10/18 01:47:45;;;;;;;7.40;3.60;;;10.00;99.90;;;;;;4970999;28;20030;-70
2022/10/18 01:50:11;;;;;;;5.82;3.45;;;9.90;99.90;;;;;;4968127;28;20477;-69
2022/10/18 01:52:50;;;;;;;5.97;3.90;;;9.90;99.90;;;;;;4970407;28;20037;-69
2022/10/18 01:55:18;;;;;;;9.15;3.85;;;9.80;99.90;;;;;;4970138;28;20043;-69
2022/10/18 01:58:05;;;;;;;7.20;3.78;;;9.80;99.90;;;;;;4970810;28;20035;-69
2022/10/18 02:00:41;;;;;;;8.23;4.40;;;9.80;99.90;;;;;;4964651;28;20130;-70
2022/10/18 02:03:24;;;;;;;9.77;5.10;;;9.80;99.90;;;;;;4969853;28;20085;-70
2022/10/18 02:06:41;;;;;;;10.57;6.30;;;9.80;99.90;;;;;;4966685;28;20031;-70
2022/10/18 02:09:18;;;;;;;13.60;7.18;;;9.80;99.90;;;;;;4935638;28;20117;-70
2022/10/18 02:11:47;;;;;;;14.45;8.40;;;9.80;99.90;;;;;;4965078;28;20026;-70
2022/10/18 02:14:15;;;;;;;13.07;10.52;;;9.80;99.90;;;;;;4969738;28;20038;-70
2022/10/18 02:16:50;;;;;;;16.02;11.30;;;9.80;99.90;;;;;;4969825;28;20056;-69
2022/10/18 02:19:19;;;;;;;13.75;11.07;;;9.80;99.90;;;;;;4969923;28;20061;-70
2022/10/18 02:21:47;;;;;;;17.60;10.90;;;9.70;99.90;;;;;;4962170;28;20054;-70
2022/10/18 02:24:17;;;;;;;15.18;10.27;;;9.70;99.90;;;;;;4968891;28;20166;-70
2022/10/18 02:26:42;;;;;;;;;;;9.60;99.90;;;;;;4967324;28;20494;-70
2022/10/18 02:29:08;;;;;;;13.55;9.25;;;9.60;99.90;;;;;;4970087;28;19914;-70
2022/10/18 02:31:34;;;;;;;13.40;8.93;;;9.50;99.90;;;;;;4969763;28;20050;-70
2022/10/18 02:34:09;;;;;;;27.60;9.32;;;9.50;99.90;;;;;;4960089;28;20042;-70
2022/10/18 02:36:50;;;;;;;10.63;8.02;;;9.50;99.90;;;;;;4969686;28;20026;-70
2022/10/18 02:39:39;;;;;;;15.75;8.45;;;9.40;99.90;;;;;;4966357;28;20121;-70
2022/10/18 02:42:05;;;;;;;11.15;7.82;;;9.50;99.90;;;;;;4959669;28;20037;-70
2022/10/18 02:44:33;;;;;;;12.65;6.95;;;9.40;99.90;;;;;;4966220;28;20027;-70
2022/10/18 02:46:58;;;;;;;12.90;7.40;;;9.30;99.90;;;;;;4953631;28;20047;-70
2022/10/18 02:49:24;;;;;;;10.35;8.20;;;9.10;99.90;;;;;;4968631;28;20104;-70
2022/10/18 02:51:50;;;;;;;15.02;7.88;;;9.10;99.90;;;;;;4968382;28;20034;-70
2022/10/18 02:54:15;;;;;;;12.50;8.00;;;9.00;99.90;;;;;;4967093;28;20039;-70
2022/10/18 02:56:41;;;;;;;12.48;7.88;;;9.00;99.90;;;;;;4969132;28;20043;-70
2022/10/18 02:59:07;;;;;;;9.57;7.05;;;9.00;99.90;;;;;;4968349;28;20034;-70
2022/10/18 03:01:35;;;;;;;10.98;5.97;;;9.00;99.90;;;;;;4967938;28;20043;-70
2022/10/18 03:04:01;;;;;;;9.65;5.70;;;8.90;99.90;;;;;;4967116;28;20090;-70
2022/10/18 03:06:27;;;;;;;10.88;5.35;;;9.00;99.90;;;;;;4967963;28;20030;-70
2022/10/18 03:08:52;;;;;;;9.27;5.95;;;9.00;99.90;;;;;;4965549;28;20089;-70
2022/10/18 03:11:18;;;;;;;9.30;5.80;;;9.00;99.90;;;;;;4967144;28;20030;-70
2022/10/18 03:13:44;;;;;;;9.50;6.15;;;9.10;99.90;;;;;;4958979;28;20437;-70
2022/10/18 03:16:10;;;;;;;9.48;5.90;;;9.20;99.90;;;;;;4967591;28;20034;-70
2022/10/18 03:18:36;;;;;;;8.48;5.57;;;9.20;99.90;;;;;;4969345;28;20046;-70
2022/10/18 03:21:06;;;;;;;10.95;6.18;;;9.20;99.90;;;;;;4968477;28;20405;-70
2022/10/18 03:23:31;;;;;;;10.75;7.15;;;9.20;99.90;;;;;;4968454;28;20085;-70
2022/10/18 03:25:57;;;;;;;13.32;6.47;;;9.20;99.90;;;;;;4967913;28;20046;-71
2022/10/18 03:28:23;;;;;;;9.27;6.65;;;9.20;99.90;;;;;;4968588;28;20081;-70
2022/10/18 03:30:48;;;;;;;13.15;8.30;;;9.20;99.90;;;;;;4968799;28;20039;-70
2022/10/18 03:33:14;;;;;;;15.00;9.35;;;9.20;99.90;;;;;;4967858;28;20034;-70
2022/10/18 03:35:40;;;;;;;24.90;9.82;;;9.10;99.90;;;;;;4968404;28;20615;-70
2022/10/18 03:38:05;;;;;;;44.88;11.25;;;9.10;99.90;;;;;;4968442;28;20039;-70
2022/10/18 03:40:31;;;;;;;26.13;10.90;;;9.00;99.90;;;;;;4966853;28;20035;-70
2022/10/18 03:42:56;;;;;;;34.55;11.77;;;9.00;99.90;;;;;;4968223;28;20030;-70
2022/10/18 03:45:22;;;;;;;29.15;12.73;;;9.00;99.90;;;;;;4970487;28;20035;-70
2022/10/18 03:47:48;;;;;;;39.47;12.48;;;9.00;99.90;;;;;;4976078;28;20058;-70
2022/10/18 03:50:14;;;;;;;18.77;11.88;;;9.00;99.90;;;;;;4961154;28;20030;-70
2022/10/18 03:52:39;;;;;;;18.75;11.38;;;9.00;99.90;;;;;;4968167;28;20034;-70
2022/10/18 03:55:05;;;;;;;18.40;12.32;;;8.90;99.90;;;;;;4967093;28;20043;-70
2022/10/18 03:57:31;;;;;;;16.50;11.35;;;8.80;99.90;;;;;;4967486;28;20166;-70
2022/10/18 03:59:57;;;;;;;16.55;11.30;;;8.70;99.90;;;;;;4976284;28;20770;-70
2022/10/18 04:02:22;;;;;;;13.38;10.95;;;8.60;99.90;;;;;;4983890;28;20034;-70
2022/10/18 04:04:48;;;;;;;15.10;10.82;;;8.50;99.90;;;;;;4970522;28;20057;-70
2022/10/18 04:07:14;;;;;;;14.70;10.98;;;8.50;99.90;;;;;;4961539;28;20041;-70
2022/10/18 04:09:39;;;;;;;15.73;11.80;;;8.50;99.90;;;;;;4965873;28;20074;-70
2022/10/18 04:12:05;;;;;;;18.23;11.90;;;8.50;99.90;;;;;;4959859;28;20536;-70
2022/10/18 04:14:31;;;;;;;15.18;10.90;;;8.40;99.90;;;;;;4960376;28;20031;-70
2022/10/18 04:16:56;;;;;;;14.40;11.25;;;8.30;99.90;;;;;;4949513;28;20085;-70
2022/10/18 04:19:22;;;;;;;14.23;10.50;;;8.20;99.90;;;;;;4968520;28;20476;-70
2022/10/18 04:21:48;;;;;;;19.45;10.05;;;8.20;99.90;;;;;;4968557;28;20590;-70
2022/10/18 04:24:16;;;;;;;20.25;8.25;;;8.10;99.90;;;;;;4967912;28;20481;-70
2022/10/18 04:26:41;;;;;;;33.67;9.98;;;8.10;99.90;;;;;;4949444;28;20050;-70
2022/10/18 04:29:07;;;;;;;26.92;9.57;;;8.00;99.90;;;;;;4967340;28;20043;-70
2022/10/18 04:31:33;;;;;;;16.52;9.88;;;8.00;99.90;;;;;;4949312;28;20035;-70
2022/10/18 04:33:58;;;;;;;35.20;10.82;;;7.90;99.90;;;;;;4967598;28;20051;-70
2022/10/18 04:36:24;;;;;;;54.40;12.02;;;7.90;99.90;;;;;;4945491;29;20117;-70
2022/10/18 04:38:49;;;;;;;25.23;10.48;;;7.90;99.90;;;;;;4947438;29;20616;-70
2022/10/18 04:41:15;;;;;;;24.35;11.07;;;7.90;99.90;;;;;;4948844;29;20031;-70
2022/10/18 04:43:41;;;;;;;16.10;10.48;;;7.80;99.90;;;;;;4949046;29;20027;-70
2022/10/18 04:46:06;;;;;;;14.73;10.77;;;7.70;99.90;;;;;;4948856;29;20046;-70
2022/10/18 04:48:32;;;;;;;32.60;11.68;;;7.70;99.90;;;;;;4948998;29;20054;-70
2022/10/18 04:50:58;;;;;;;25.00;12.13;;;7.80;99.90;;;;;;4949478;29;20130;-70
2022/10/18 04:53:23;;;;;;;23.13;11.70;;;7.80;99.90;;;;;;4948675;29;20162;-70
2022/10/18 04:55:49;;;;;;;20.48;10.55;;;7.90;99.90;;;;;;4948785;29;20106;-70
2022/10/18 04:58:16;;;;;;;30.70;10.98;;;7.80;99.90;;;;;;4948859;29;20031;-70
2022/10/18 05:00:42;;;;;;;27.23;10.93;;;7.80;99.90;;;;;;4948293;28;20599;-70
2022/10/18 05:03:09;;;;;;;20.20;10.85;;;7.80;99.90;;;;;;4948626;29;20039;-70
2022/10/18 05:05:37;;;;;;;15.93;12.05;;;7.70;99.90;;;;;;4949859;28;20030;-70
2022/10/18 05:08:03;;;;;;;16.08;10.93;;;7.70;99.90;;;;;;4949701;28;20062;-70
2022/10/18 05:10:29;;;;;;;20.17;11.60;;;7.80;99.90;;;;;;4953978;28;20560;-70
2022/10/18 05:12:54;;;;;;;17.23;11.27;;;7.70;99.90;;;;;;4950477;28;20035;-70
2022/10/18 05:15:20;;;;;;;17.48;11.43;;;7.60;99.90;;;;;;4955895;28;20410;-70
2022/10/18 05:17:46;;;;;;;20.50;12.38;;;7.60;99.90;;;;;;4963972;28;20039;-70
2022/10/18 05:20:11;;;;;;;18.67;12.88;;;7.70;99.90;;;;;;4961463;28;20117;-70
2022/10/18 05:22:37;;;;;;;19.52;12.60;;;7.70;99.90;;;;;;4954271;28;20034;-70
2022/10/18 05:25:03;;;;;;;21.77;13.40;;;7.70;99.90;;;;;;4957730;28;20251;-69
2022/10/18 05:27:29;;;;;;;21.20;13.57;;;7.80;99.90;;;;;;4963994;28;20059;-69
2022/10/18 05:29:54;;;;;;;27.67;13.40;;;7.70;99.90;;;;;;4959031;28;20114;-69
2022/10/18 05:32:20;;;;;;;29.65;12.50;;;7.80;99.90;;;;;;4962577;28;20039;-69
2022/10/18 05:34:46;;;;;;;20.40;11.93;;;7.80;99.90;;;;;;4948555;28;20631;-69
2022/10/18 05:37:12;;;;;;;33.50;11.77;;;7.70;99.90;;;;;;4949668;28;20037;-69
2022/10/18 05:39:38;;;;;;;14.10;9.90;;;7.70;99.90;;;;;;4954018;28;20543;-69
2022/10/18 05:42:05;;;;;;;24.40;9.98;;;7.70;99.90;;;;;;4959109;28;20046;-69
2022/10/18 05:44:31;;;;;;;23.00;9.52;;;7.70;99.90;;;;;;4959319;28;20035;-70
2022/10/18 05:46:56;;;;;;;20.48;9.20;;;7.70;99.90;;;;;;4954672;28;20042;-69
2022/10/18 05:49:22;;;;;;;10.23;7.20;;;7.70;99.90;;;;;;4951711;28;20046;-69
2022/10/18 05:51:48;;;;;;;20.65;8.45;;;7.70;99.90;;;;;;4947700;28;20441;-69
2022/10/18 05:54:14;;;;;;;17.42;8.85;;;7.70;99.90;;;;;;4957386;28;20565;-70
2022/10/18 05:56:40;;;;;;;11.30;8.13;;;7.70;99.90;;;;;;4949343;28;20026;-70
2022/10/18 05:59:10;;;;;;;15.68;8.32;;;7.60;99.90;;;;;;4964496;28;20470;-69
2022/10/18 06:01:37;;;;;;;13.20;7.75;;;7.70;99.90;;;;;;4946888;28;20397;-70
2022/10/18 06:04:03;;;;;;;11.52;6.85;;;7.60;99.90;;;;;;4949065;29;20039;-69
2022/10/18 06:06:30;;;;;;;8.95;5.95;;;7.60;99.90;;;;;;4949206;29;20035;-70
2022/10/18 06:08:56;;;;;;;16.35;7.00;;;7.60;99.90;;;;;;4947139;28;20035;-70
2022/10/18 06:11:22;;;;;;;17.20;7.70;;;7.50;99.90;;;;;;4949293;29;20039;-69
2022/10/18 06:13:50;;;;;;;12.63;6.78;;;7.50;99.90;;;;;;4948089;28;20034;-69
2022/10/18 06:16:17;;;;;;;9.30;6.05;;;7.50;99.90;;;;;;4960715;28;20766;-69
2022/10/18 06:18:48;;;;;;;14.07;6.50;;;7.50;99.90;;;;;;4948288;28;20069;-69
2022/10/18 06:21:14;;;;;;;16.38;7.40;;;7.50;99.90;;;;;;4950298;28;20035;-69
2022/10/18 06:23:39;;;;;;;19.40;8.00;;;7.50;99.90;;;;;;4940572;28;20038;-69
2022/10/18 06:26:07;;;;;;;12.27;7.53;;;7.50;99.90;;;;;;4948190;28;20449;-70
2022/10/18 06:28:34;;;;;;;25.50;8.30;;;7.50;99.90;;;;;;4948063;28;20035;-69
2022/10/18 06:31:00;;;;;;;16.65;9.35;;;7.50;99.90;;;;;;4961221;28;20038;-69
2022/10/18 06:33:25;;;;;;;54.88;11.27;;;7.60;99.90;;;;;;4950298;28;20039;-69
2022/10/18 06:36:11;;;;;;;31.75;10.85;;;7.60;99.90;;;;;;4966552;28;20058;-69
2022/10/18 06:38:37;;;;;;;24.83;11.05;;;7.60;99.90;;;;;;4949383;28;20023;-69
2022/10/18 06:41:04;;;;;;;22.90;11.10;;;7.60;99.90;;;;;;4970690;28;20044;-69
2022/10/18 06:43:29;;;;;;;26.40;11.98;;;7.60;99.90;;;;;;4970194;28;20125;-69
2022/10/18 06:45:55;;;;;;;25.48;12.60;;;7.50;99.90;;;;;;4969947;28;20034;-70
2022/10/18 06:48:23;;;;;;;24.63;12.85;;;7.50;99.90;;;;;;4969844;28;20035;-69
2022/10/18 06:50:53;;;;;;;40.22;13.18;;;7.40;99.90;;;;;;4969652;28;20105;-69
2022/10/18 06:53:18;;;;;;;24.73;11.95;;;7.40;99.90;;;;;;4964914;28;20049;-70
2022/10/18 06:55:45;;;;;;;24.88;11.68;;;7.50;99.90;;;;;;4961250;28;20032;-69
2022/10/18 06:58:11;;;;;;;20.17;10.63;;;7.50;99.90;;;;;;4971944;28;20117;-70
2022/10/18 07:00:36;;;;;;;22.98;11.18;;;7.50;99.90;;;;;;4967941;28;20169;-69
2022/10/18 07:03:02;;;;;;;36.67;11.30;;;7.50;99.90;;;;;;4967443;28;20118;-70
2022/10/18 07:05:28;;;;;;;24.65;11.57;;;7.50;99.90;;;;;;4962172;28;20038;-69
2022/10/18 07:07:53;;;;;;;18.27;11.48;;;7.50;99.90;;;;;;4963562;28;20549;-69
2022/10/18 07:10:19;;;;;;;18.25;11.57;;;7.50;99.90;;;;;;4967653;28;20027;-69
2022/10/18 07:12:44;;;;;;;17.48;10.93;;;7.60;99.90;;;;;;4966805;28;20042;-70
2022/10/18 07:15:10;;;;;;;18.23;10.82;;;7.60;99.90;;;;;;4963689;28;20084;-69
2022/10/18 07:17:36;;;;;;;19.33;11.38;;;7.70;99.90;;;;;;4964575;28;20023;-70
2022/10/18 07:20:03;;;;;;;15.90;10.30;;;7.80;99.90;;;;;;4965936;28;20512;-69
2022/10/18 07:22:29;;;;;;;16.05;10.93;;;7.80;99.90;;;;;;4959108;28;20107;-70
2022/10/18 07:24:54;;;;;;;19.60;11.02;;;7.90;99.90;;;;;;4964609;28;20042;-69
2022/10/18 07:27:20;;;;;;;18.92;12.10;;;8.00;99.90;;;;;;4967953;28;20043;-69
2022/10/18 07:29:47;;;;;;;20.13;15.05;;;8.10;99.90;;;;;;4968073;28;20038;-70
2022/10/18 07:32:13;;;;;;;27.08;19.90;;;8.20;99.90;;;;;;4961350;28;20938;-70
2022/10/18 07:34:38;;;;;;;27.27;20.80;;;8.20;99.90;;;;;;4960081;28;20047;-69
2022/10/18 07:37:04;;;;;;;28.42;19.95;;;8.20;99.90;;;;;;4965651;28;20034;-70
2022/10/18 07:39:30;;;;;;;26.75;18.65;;;8.20;99.90;;;;;;4964861;28;20799;-70
2022/10/18 07:41:56;;;;;;;24.95;17.17;;;8.20;99.90;;;;;;4961489;28;20150;-70
2022/10/18 07:44:22;;;;;;;24.33;15.45;;;8.20;99.90;;;;;;4962110;28;20118;-70
2022/10/18 07:46:47;;;;;;;22.42;13.55;;;8.30;99.90;;;;;;4970546;28;20733;-72
2022/10/18 07:49:13;;;;;;;25.25;13.45;;;8.30;99.90;;;;;;4976557;28;20461;-72
2022/10/18 07:51:38;;;;;;;15.88;11.35;;;8.40;99.90;;;;;;4967861;28;20469;-72
2022/10/18 07:54:04;;;;;;;20.00;11.80;;;8.50;99.90;;;;;;4961244;28;20756;-71
2022/10/18 07:56:30;;;;;;;18.52;10.43;;;8.60;99.90;;;;;;4986712;28;20034;-71
2022/10/18 07:58:56;;;;;;;17.05;9.70;;;8.70;99.90;;;;;;4988762;28;20089;-71
2022/10/18 08:01:23;;;;;;;14.23;8.77;;;8.80;99.90;;;;;;4980311;28;20038;-72
2022/10/18 08:03:49;;;;;;;13.95;8.95;;;8.90;99.90;;;;;;4968967;28;20023;-71
2022/10/18 08:06:17;;;;;;;14.80;8.65;;;9.00;99.90;;;;;;4969202;28;20039;-72
2022/10/18 08:08:44;;;;;;;11.65;7.20;;;9.10;99.90;;;;;;4952035;28;20038;-72
2022/10/18 08:11:19;;;;;;;9.82;6.15;;;9.20;99.90;;;;;;4969461;28;20086;-72
2022/10/18 08:13:45;;;;;;;10.38;6.15;;;9.40;99.90;;;;;;4955883;28;20030;-72
2022/10/18 08:16:19;;;;;;;10.23;5.85;;;9.60;99.90;;;;;;4969280;28;20041;-72
2022/10/18 08:18:45;;;;;;;9.35;5.45;;;9.70;99.90;;;;;;4965128;28;20422;-72
2022/10/18 08:21:12;;;;;;;11.70;5.70;;;9.90;99.90;;;;;;4951780;28;20098;-72
2022/10/18 08:23:40;;;;;;;9.85;6.07;;;10.20;99.90;;;;;;4969339;28;20062;-72
2022/10/18 08:26:09;;;;;;;9.23;5.53;;;10.30;99.90;;;;;;4969194;28;20031;-71
2022/10/18 08:28:35;;;;;;;9.95;5.68;;;10.50;99.90;;;;;;4952127;28;20045;-72
2022/10/18 08:31:05;;;;;;;10.35;6.57;;;10.60;99.90;;;;;;4947979;29;20040;-72
2022/10/18 08:33:32;;;;;;;14.65;5.70;;;10.80;99.90;;;;;;4949783;29;20078;-72
2022/10/18 08:36:00;;;;;;;9.35;5.80;;;10.90;99.90;;;;;;4959390;28;20058;-72
2022/10/18 08:38:29;;;;;;;9.32;5.95;;;11.00;99.90;;;;;;4968850;28;20370;-72
2022/10/18 08:40:54;;;;;;;9.50;5.63;;;11.10;99.90;;;;;;4976630;28;20085;-72
2022/10/18 08:43:41;;;;;;;12.18;5.78;;;11.20;99.90;;;;;;4978233;28;20292;-72
2022/10/18 08:46:11;;;;;;;9.45;5.50;;;11.40;99.90;;;;;;4967768;28;20118;-72
2022/10/18 08:48:47;;;;;;;9.60;5.38;;;11.50;99.90;;;;;;4952201;28;20127;-71
2022/10/18 08:51:38;;;;;;;7.78;4.90;;;11.60;99.90;;;;;;4953340;29;20213;-72
2022/10/18 08:54:11;;;;;;;12.30;5.18;;;11.80;99.90;;;;;;4969839;28;20026;-72
2022/10/18 08:56:40;;;;;;;9.45;4.57;;;11.90;99.90;;;;;;4972722;28;20085;-76
2022/10/18 08:59:10;;;;;;;9.95;4.97;;;12.00;99.90;;;;;;4972300;28;20035;-72
2022/10/18 09:02:13;;;;;;;9.40;4.30;;;12.40;99.90;;;;;;4971726;28;20077;-73
2022/10/18 09:05:14;;;;;;;11.45;4.75;;;12.50;99.90;;;;;;4964600;28;20039;-73
2022/10/18 09:07:55;;;;;;;11.13;3.97;;;12.70;99.90;;;;;;4938648;28;20063;-73
2022/10/18 09:10:40;;;;;;;10.32;4.50;;;12.90;99.90;;;;;;4966463;28;20030;-73
2022/10/18 09:13:24;;;;;;;10.10;3.50;;;13.00;99.90;;;;;;4966263;28;20074;-74
2022/10/18 09:15:54;;;;;;;10.23;3.67;;;13.10;99.90;;;;;;4967260;28;20089;-73
2022/10/18 09:18:34;;;;;;;11.30;3.47;;;13.20;99.90;;;;;;4968687;28;20046;-72
2022/10/18 09:21:16;;;;;;;11.32;3.22;;;13.30;99.90;;;;;;4966277;28;20026;-72
2022/10/18 09:23:47;;;;;;;12.07;3.30;;;13.40;99.90;;;;;;4989393;28;20046;-72
2022/10/18 09:26:17;;;;;;;13.63;4.07;;;13.50;99.90;;;;;;4962771;28;20039;-72
2022/10/18 09:29:31;;;;;;;12.82;3.85;;;13.70;99.90;;;;;;4951491;28;20035;-72
2022/10/18 09:32:03;;;;;;;9.95;3.22;;;13.90;99.90;;;;;;4960542;28;20028;-72
2022/10/18 09:34:41;;;;;;;13.98;3.78;;;14.10;99.90;;;;;;4970535;28;20082;-72
2022/10/18 09:37:19;;;;;;;8.15;2.92;;;14.30;99.90;;;;;;4978063;28;20027;-72
2022/10/18 09:39:49;;;;;;;10.35;3.40;;;14.50;99.90;;;;;;4954036;28;20114;-72
2022/10/18 09:42:27;;;;;;;10.10;3.03;;;14.60;99.90;;;;;;4958984;28;20031;-72
2022/10/18 09:45:02;;;;;;;12.93;3.53;;;14.80;99.90;;;;;;4969466;28;20038;-73
2022/10/18 09:47:42;;;;;;;10.95;2.70;;;15.10;99.90;;;;;;4968212;28;20179;-72
2022/10/18 09:50:23;;;;;;;10.55;2.60;;;15.30;99.90;;;;;;4952031;28;20666;-72
2022/10/18 09:53:00;;;;;;;13.18;3.05;;;15.60;99.90;;;;;;4972510;28;20440;-72
2022/10/18 09:55:32;;;;;;;11.40;2.72;;;15.70;99.90;;;;;;4973386;28;20093;-73
2022/10/18 09:58:01;;;;;;;10.43;2.80;;;15.70;99.90;;;;;;4954208;28;20062;-73
2022/10/18 10:00:32;;;;;;;8.75;3.00;;;15.80;99.90;;;;;;4970802;28;20437;-73
2022/10/18 10:03:06;;;;;;;12.38;2.95;;;15.90;99.90;;;;;;4970815;28;20470;-73
2022/10/18 10:05:31;;;;;;;10.20;2.88;;;15.90;99.90;;;;;;4934758;29;20035;-74
2022/10/18 10:07:58;;;;;;;10.35;3.25;;;16.10;99.90;;;;;;4970882;28;20077;-75
2022/10/18 10:10:28;;;;;;;11.18;2.90;;;16.10;99.90;;;;;;4990133;28;20045;-72
2022/10/18 10:13:15;;;;;;;12.18;3.05;;;16.50;99.90;;;;;;4960065;28;20030;-73
2022/10/18 10:15:50;;;;;;;9.75;3.10;;;16.80;99.90;;;;;;4968924;28;20125;-73
2022/10/18 10:18:22;;;;;;;14.93;3.35;;;16.90;99.90;;;;;;4971525;28;20031;-74
2022/10/18 10:20:52;;;;;;;9.77;3.30;;;17.00;99.90;;;;;;4977285;28;20034;-74
2022/10/18 10:23:25;;;;;;;13.10;3.35;;;17.60;99.90;;;;;;4969461;28;20031;-74
2022/10/18 10:25:53;;;;;;;13.43;3.20;;;18.70;99.80;;;;;;4970890;28;20134;-73
2022/10/18 10:28:22;;;;;;;11.50;3.30;;;19.20;96.30;;;;;;4971303;28;20129;-74
2022/10/18 10:30:48;;;;;;;11.95;3.35;;;19.30;96.00;;;;;;4969480;28;20421;-73
2022/10/18 10:33:36;;;;;;;13.32;3.20;;;19.20;95.40;;;;;;4952506;28;20039;-74
2022/10/18 10:36:14;;;;;;;13.68;2.80;;;18.70;97.40;;;;;;4970137;28;20098;-75
2022/10/18 10:38:40;;;;;;;11.23;3.15;;;18.30;98.40;;;;;;4970721;28;20111;-74
2022/10/18 10:41:18;;;;;;;9.50;2.28;;;18.20;99.90;;;;;;4952986;28;20047;-74
2022/10/18 10:43:44;;;;;;;8.68;2.05;;;18.30;99.90;;;;;;4966861;28;20027;-76
2022/10/18 10:46:13;;;;;;;9.60;2.40;;;18.50;99.90;;;;;;4949512;28;20145;-72
2022/10/18 10:48:57;;;;;;;12.98;2.40;;;19.00;98.20;;;;;;4970485;28;20045;-72
2022/10/18 10:51:37;;;;;;;11.15;2.10;;;20.70;94.10;;;;;;4933802;28;20035;-73
2022/10/18 10:54:12;;;;;;;9.65;2.90;;;23.30;78.60;;;;;;4964443;28;20098;-73
2022/10/18 10:56:59;;;;;;;8.07;2.03;;;23.70;71.40;;;;;;4948653;28;20058;-73
2022/10/18 10:59:27;;;;;;;11.48;1.88;;;22.60;73.50;;;;;;4962076;28;20041;-74
2022/10/18 11:02:32;;;;;;;10.85;2.50;;;22.20;72.10;;;;;;4970367;28;20485;-75
2022/10/18 11:05:22;;;;;;;11.20;1.75;;;21.60;69.90;;;;;;4957261;28;20062;-75
2022/10/18 11:07:50;;;;;;;11.48;2.10;;;21.30;72.50;;;;;;4962376;28;20089;-74
2022/10/18 11:10:20;;;;;;;6.13;1.50;;;20.90;73.60;;;;;;4964218;28;20070;-75
2022/10/18 11:13:01;;;;;;;10.13;2.00;;;20.60;73.90;;;;;;4964952;28;20034;-73
2022/10/18 11:15:37;;;;;;;8.00;1.80;;;20.30;72.80;;;;;;4964761;28;20038;-74
2022/10/18 11:18:29;;;;;;;9.57;2.00;;;19.80;75.90;;;;;;4964914;28;20066;-74
2022/10/18 11:21:06;;;;;;;14.10;2.30;;;19.50;78.60;;;;;;4972669;28;20072;-74
2022/10/18 11:23:35;;;;;;;9.93;2.17;;;19.20;82.10;;;;;;4953183;28;20379;-76
2022/10/18 11:26:06;;;;;;;8.38;2.08;;;19.10;81.90;;;;;;4971306;28;20038;-74
2022/10/18 11:28:35;;;;;;;7.82;1.80;;;19.00;82.90;;;;;;4989181;28;20038;-73
2022/10/18 11:31:32;;;;;;;10.35;2.00;;;18.90;84.10;;;;;;4956697;28;20501;-74
2022/10/18 11:34:16;;;;;;;8.88;1.30;;;19.10;85.10;;;;;;4967489;28;20478;-75
2022/10/18 11:36:47;;;;;;;7.90;1.80;;;19.20;85.10;;;;;;4960657;28;20769;-73
2022/10/18 11:39:35;;;;;;;10.00;1.73;;;19.20;83.60;;;;;;4967430;28;20041;-74
2022/10/18 11:42:26;;;;;;;7.40;1.85;;;19.00;82.10;;;;;;4964116;28;20042;-73
2022/10/18 11:45:03;;;;;;;10.10;1.55;;;19.00;84.80;;;;;;4962111;28;20482;-73
2022/10/18 11:48:11;;;;;;;10.35;1.50;;;19.00;84.30;;;;;;4953486;28;20133;-73
2022/10/18 11:50:57;;;;;;;10.73;1.80;;;18.90;81.30;;;;;;4888197;29;20491;-72
2022/10/18 11:53:23;;;;;;;10.00;1.80;;;19.00;82.00;;;;;;4883826;29;20071;-72
2022/10/18 11:56:10;;;;;;;8.48;1.45;;;19.00;82.30;;;;;;4869667;29;20092;-73
2022/10/18 11:58:51;;;;;;;8.05;1.83;;;19.00;79.40;;;;;;4898735;29;20029;-73
2022/10/18 12:01:33;;;;;;;9.02;1.95;;;19.00;79.50;;;;;;4884058;29;20046;-73
2022/10/18 12:04:08;;;;;;;7.45;1.70;;;19.00;79.90;;;;;;4889171;29;20044;-73
2022/10/18 12:06:38;;;;;;;8.65;1.77;;;19.00;82.90;;;;;;4890099;29;20049;-72
2022/10/18 12:09:13;;;;;;;11.00;2.05;;;19.00;82.10;;;;;;4890261;29;20238;-73
2022/10/18 12:11:45;;;;;;;8.27;1.60;;;19.10;84.00;;;;;;4890659;29;20563;-73
2022/10/18 12:14:35;;;;;;;11.23;2.50;;;19.10;83.60;;;;;;4870566;29;20181;-74
2022/10/18 12:17:11;;;;;;;9.75;2.10;;;19.10;84.90;;;;;;4887950;29;20029;-73
2022/10/18 12:19:37;;;;;;;13.23;1.95;;;19.10;85.10;;;;;;4890310;29;20032;-73
2022/10/18 12:22:19;;;;;;;8.60;1.67;;;19.20;84.80;;;;;;4891029;29;20041;-74
2022/10/18 12:24:44;;;;;;;9.45;2.30;;;19.20;84.00;;;;;;4876915;29;20048;-74
2022/10/18 12:27:13;;;;;;;11.70;2.33;;;19.10;88.10;;;;;;4923468;28;20053;-74
2022/10/18 12:29:46;;;;;;;9.50;1.95;;;19.10;89.00;;;;;;4971111;28;20122;-73
2022/10/18 12:32:33;;;;;;;10.02;2.30;;;19.20;86.60;;;;;;4946391;28;20066;-75
2022/10/18 12:35:05;;;;;;;9.48;2.20;;;19.10;85.20;;;;;;4968208;28;20051;-74
2022/10/18 12:37:31;;;;;;;14.02;2.30;;;19.10;86.50;;;;;;4970836;28;20035;-74
2022/10/18 12:40:11;;;;;;;10.27;2.30;;;19.20;88.10;;;;;;4970566;28;20033;-71
2022/10/18 12:42:45;;;;;;;10.98;2.88;;;19.20;88.00;;;;;;4972323;28;20485;-72
2022/10/18 12:45:45;;;;;;;11.50;1.95;;;19.20;88.70;;;;;;4966804;28;20097;-74
2022/10/18 12:48:30;;;;;;;10.75;1.70;;;19.10;84.80;;;;;;4969612;28;20094;-71
2022/10/18 12:51:14;;;;;;;9.95;2.25;;;19.10;85.60;;;;;;4972432;28;20043;-73
2022/10/18 12:53:41;;;;;;;11.23;2.38;;;19.10;88.10;;;;;;4969256;28;20031;-72
2022/10/18 12:56:28;;;;;;;10.20;2.25;;;19.20;84.70;;;;;;4960203;28;20041;-73
2022/10/18 12:59:13;;;;;;;13.43;2.40;;;19.10;83.40;;;;;;4959266;28;20038;-73
2022/10/18 13:01:58;;;;;;;8.48;2.45;;;19.10;85.30;;;;;;4969882;28;20061;-72
2022/10/18 13:04:27;;;;;;;10.68;2.08;;;19.10;86.60;;;;;;4970855;28;20041;-72